Time;durP1;ratioP1;P1;durP2;ratioP2;P2;SDS_P1;SDS_P2;PMS_P1;PMS_P2;Temp;Humidity;BMP_temperature;BMP_pressure;BME280_temperature;BME280_humidity;BME280_pressure;Samples;Min_cycle;Max_cycle;Signal;HPM_P1;HPM_P2
2023/05/25 00:01:38;;;;;;;1.30;1.30;;;;;;;14.67;97.36;96827.59;5081524;28;20055;-60
2023/05/25 00:04:04;;;;;;;1.30;1.30;;;;;;;14.71;97.63;96859.09;5064579;28;20469;-60
2023/05/25 00:06:32;;;;;;;1.30;1.30;;;;;;;14.48;96.72;96813.34;5065279;28;20079;-62
2023/05/25 00:08:58;;;;;;;1.23;1.23;;;;;;;13.10;96.51;96581.56;5071116;28;20052;-60
2023/05/25 00:11:25;;;;;;;1.20;1.20;;;;;;;14.80;96.84;96855.84;5085314;28;20086;-60
2023/05/25 00:13:52;;;;;;;1.20;1.20;;;;;;;14.78;96.71;96858.25;5084392;28;20586;-61
2023/05/25 00:16:19;;;;;;;1.30;1.30;;;;;;;14.72;97.34;96859.84;5085429;28;20052;-62
2023/05/25 00:18:47;;;;;;;1.20;1.20;;;;;;;14.73;97.30;96864.25;5084342;28;20078;-61
2023/05/25 00:21:14;;;;;;;1.27;1.27;;;;;;;14.60;97.83;96851.94;5085319;28;20055;-60
2023/05/25 00:23:42;;;;;;;1.30;1.30;;;;;;;14.63;96.79;96873.44;5084287;28;20359;-59
2023/05/25 00:26:08;;;;;;;1.13;1.13;;;;;;;14.58;98.56;96863.47;5083702;28;20066;-60
2023/05/25 00:28:35;;;;;;;1.20;1.20;;;;;;;14.63;97.45;96862.28;5085568;28;20465;-60
2023/05/25 00:31:02;;;;;;;1.10;1.10;;;;;;;14.02;99.77;96816.13;5083773;28;20498;-60
2023/05/25 00:33:29;;;;;;;1.20;1.20;;;;;;;14.36;100.00;96858.31;5085289;28;20484;-61
2023/05/25 00:35:56;;;;;;;1.15;1.15;;;;;;;14.36;99.56;96863.91;5085871;28;20545;-60
2023/05/25 00:38:23;;;;;;;1.30;1.30;;;;;;;14.36;99.45;96859.13;5085486;28;20542;-60
2023/05/25 00:40:54;;;;;;;1.20;1.20;;;;;;;14.38;98.94;96853.16;5083928;28;20052;-60
2023/05/25 00:43:20;;;;;;;0.93;0.93;;;;;;;14.30;99.72;96854.34;5083907;28;20054;-60
2023/05/25 00:45:50;;;;;;;1.30;1.30;;;;;;;14.29;99.54;96849.97;5085439;28;20162;-61
2023/05/25 00:48:17;;;;;;;1.17;1.17;;;;;;;14.38;98.37;96853.16;5085211;28;20063;-60
2023/05/25 00:50:44;;;;;;;1.30;1.30;;;;;;;14.28;99.68;96856.72;5084817;28;20059;-60
2023/05/25 00:53:13;;;;;;;1.20;1.20;;;;;;;14.29;99.08;96858.34;5083755;28;20105;-60
2023/05/25 00:55:58;;;;;;;1.10;1.10;;;;;;;14.30;98.34;96860.72;5085069;28;20060;-60
2023/05/25 00:58:26;;;;;;;1.10;1.10;;;;;;;14.32;99.13;96863.13;5085221;28;20102;-61
2023/05/25 01:00:57;;;;;;;1.30;1.30;;;;;;;14.30;99.51;96865.50;5084636;28;20052;-60
2023/05/25 01:03:28;;;;;;;1.30;1.30;;;;;;;14.39;98.46;96871.44;5085200;28;20125;-60
2023/05/25 01:05:57;;;;;;;1.20;1.20;;;;;;;14.37;98.09;96865.50;5084959;28;20529;-60
2023/05/25 01:08:24;;;;;;;1.23;1.23;;;;;;;14.08;97.60;96825.69;5083437;28;20055;-60
2023/05/25 01:10:52;;;;;;;1.30;1.30;;;;;;;13.92;98.31;96789.06;5082987;28;20059;-60
2023/05/25 01:13:20;;;;;;;1.10;1.10;;;;;;;14.44;97.10;96876.63;5084431;28;20094;-60
2023/05/25 01:15:48;;;;;;;1.20;1.20;;;;;;;14.39;97.03;96874.25;5084390;28;20090;-62
2023/05/25 01:18:16;;;;;;;1.27;1.27;;;;;;;14.38;96.69;96872.66;5083297;28;20055;-62
2023/05/25 01:21:11;;;;;;;1.20;1.20;;;;;;;14.32;97.47;96863.13;5084520;28;20056;-62
2023/05/25 01:23:45;;;;;;;1.10;1.10;;;;;;;14.25;95.96;96858.34;5084556;28;20492;-60
2023/05/25 01:26:15;;;;;;;1.20;1.20;;;;;;;13.84;97.47;96808.97;5084020;28;20561;-59
2023/05/25 01:28:49;;;;;;;1.10;1.10;;;;;;;14.19;96.70;96850.75;5084414;28;20067;-60
2023/05/25 01:31:19;;;;;;;1.20;1.20;;;;;;;14.14;97.62;96867.84;5084410;28;20154;-61
2023/05/25 01:33:51;;;;;;;1.10;1.10;;;;;;;14.15;97.56;96847.16;5084465;28;20067;-60
2023/05/25 01:36:18;;;;;;;1.20;1.20;;;;;;;13.55;100.00;96778.31;5083858;28;20097;-60
2023/05/25 01:38:45;;;;;;;0.98;0.98;;;;;;;13.85;100.00;96843.97;5084112;28;20052;-61
2023/05/25 01:41:12;;;;;;;1.20;1.20;;;;;;;13.53;100.00;96861.41;5083529;28;20542;-61
2023/05/25 01:43:39;;;;;;;1.10;1.10;;;;;;;13.46;100.00;96843.91;5082946;28;20538;-59
2023/05/25 01:46:35;;;;;;;1.13;1.13;;;;;;;13.69;100.00;96849.91;5082375;28;20048;-63
2023/05/25 01:49:41;;;;;;;1.10;1.10;;;;;;;13.54;100.00;96851.88;5084171;28;20151;-60
2023/05/25 01:52:30;;;;;;;1.13;1.13;;;;;;;13.56;100.00;96843.13;5082426;28;20058;-61
2023/05/25 01:55:04;;;;;;;1.15;1.15;;;;;;;13.46;100.00;96816.88;5082770;28;20048;-61
2023/05/25 01:57:35;;;;;;;1.10;1.10;;;;;;;12.98;100.00;96751.53;5083628;28;20051;-60
2023/05/25 02:00:03;;;;;;;1.20;1.20;;;;;;;13.76;100.00;96857.47;5082922;28;20048;-60
2023/05/25 02:02:32;;;;;;;1.20;1.20;;;;;;;13.23;100.00;96774.69;5082483;28;20085;-60
2023/05/25 02:04:59;;;;;;;1.10;1.10;;;;;;;13.81;100.00;96859.88;5084198;28;20487;-62
2023/05/25 02:07:26;;;;;;;1.17;1.17;;;;;;;13.71;100.00;96855.88;5082222;28;20052;-60
2023/05/25 02:09:53;;;;;;;1.20;1.20;;;;;;;13.78;100.00;96906.00;5084016;28;20056;-60
2023/05/25 02:12:19;;;;;;;1.10;1.10;;;;;;;13.21;100.00;96771.53;5084166;28;20044;-60
2023/05/25 02:14:47;;;;;;;1.10;1.10;;;;;;;13.79;100.00;96865.84;5084214;28;20557;-62
2023/05/25 02:17:16;;;;;;;1.10;1.10;;;;;;;13.69;100.00;96858.25;5083556;28;20058;-60
2023/05/25 02:19:45;;;;;;;1.10;1.10;;;;;;;13.64;100.00;96862.22;5082630;28;20127;-59
2023/05/25 02:22:12;;;;;;;1.10;1.10;;;;;;;13.27;100.00;96797.75;5081851;28;20076;-60
2023/05/25 02:24:38;;;;;;;1.08;1.08;;;;;;;13.23;100.00;96769.13;5083856;28;20052;-60
2023/05/25 02:27:06;;;;;;;1.20;1.20;;;;;;;13.21;100.00;96788.22;5083531;28;20526;-60
2023/05/25 02:29:33;;;;;;;1.10;1.10;;;;;;;13.24;100.00;96792.97;5083553;28;20832;-59
2023/05/25 02:31:59;;;;;;;1.20;1.20;;;;;;;13.83;100.00;96863.06;5083572;28;20047;-60
2023/05/25 02:34:26;;;;;;;1.10;1.10;;;;;;;13.95;100.00;96866.25;5083245;28;20060;-61
2023/05/25 02:36:52;;;;;;;1.20;1.20;;;;;;;13.94;100.00;96880.56;5098799;28;20048;-60
2023/05/25 02:39:19;;;;;;;1.20;1.20;;;;;;;13.93;100.00;96873.41;5082091;28;20051;-60
2023/05/25 02:41:46;;;;;;;1.00;1.00;;;;;;;13.93;100.00;96863.06;5083346;28;20044;-59
2023/05/25 02:44:12;;;;;;;1.10;1.10;;;;;;;14.02;99.47;96884.97;5083817;28;20044;-61
2023/05/25 02:46:39;;;;;;;1.10;1.10;;;;;;;14.03;100.00;96878.19;5083616;28;20081;-60
2023/05/25 02:49:06;;;;;;;1.15;1.15;;;;;;;14.07;100.00;96879.00;5085256;28;20134;-59
2023/05/25 02:51:33;;;;;;;1.17;1.17;;;;;;;14.01;99.55;96886.13;5085196;28;20052;-61
2023/05/25 02:54:00;;;;;;;1.15;1.15;;;;;;;13.84;100.00;96865.44;5086479;28;20078;-60
2023/05/25 02:56:27;;;;;;;1.27;1.27;;;;;;;14.05;99.37;96892.53;5086737;28;20048;-60
2023/05/25 02:58:53;;;;;;;1.10;1.10;;;;;;;14.09;98.32;96887.75;5086629;28;20140;-59
2023/05/25 03:01:20;;;;;;;1.10;1.10;;;;;;;14.11;99.31;96908.44;5086729;28;20752;-59
2023/05/25 03:03:51;;;;;;;1.10;1.10;;;;;;;13.93;97.68;96851.13;5086499;28;20051;-60
2023/05/25 03:06:20;;;;;;;1.20;1.20;;;;;;;13.84;98.51;96853.50;5087187;28;20404;-60
2023/05/25 03:08:47;;;;;;;1.17;1.17;;;;;;;14.10;97.46;96867.84;5086876;28;20056;-60
2023/05/25 03:11:14;;;;;;;1.20;1.20;;;;;;;14.14;97.75;96884.56;5087116;28;20059;-60
2023/05/25 03:13:40;;;;;;;1.13;1.13;;;;;;;14.12;98.52;96886.94;5086918;28;20055;-60
2023/05/25 03:16:07;;;;;;;1.10;1.10;;;;;;;14.21;97.77;96892.94;5086651;28;20048;-62
2023/05/25 03:18:34;;;;;;;1.10;1.10;;;;;;;14.29;95.95;96902.91;5085184;28;20044;-60
2023/05/25 03:21:01;;;;;;;1.20;1.20;;;;;;;14.26;96.69;96892.53;5087030;28;20044;-63
2023/05/25 03:23:28;;;;;;;1.20;1.20;;;;;;;14.03;97.44;96844.78;5086889;28;20059;-59
2023/05/25 03:25:55;;;;;;;1.10;1.10;;;;;;;13.96;96.02;96805.78;5086839;28;20048;-60
2023/05/25 03:28:22;;;;;;;1.20;1.20;;;;;;;14.54;94.91;96898.13;5086451;28;20469;-60
2023/05/25 03:30:48;;;;;;;1.10;1.10;;;;;;;13.99;95.37;96805.00;5084905;28;20067;-59
2023/05/25 03:33:15;;;;;;;1.30;1.30;;;;;;;14.59;95.52;96895.72;5086170;28;20059;-60
2023/05/25 03:35:42;;;;;;;1.10;1.10;;;;;;;14.82;93.86;96896.09;5086188;28;20067;-60
2023/05/25 03:38:09;;;;;;;1.10;1.10;;;;;;;14.93;93.95;96887.72;5086090;28;20048;-59
2023/05/25 03:40:35;;;;;;;1.27;1.27;;;;;;;15.03;93.80;96886.91;5072421;28;20044;-60
2023/05/25 03:43:02;;;;;;;1.20;1.20;;;;;;;14.93;94.87;96887.72;5066036;28;20057;-59
2023/05/25 03:45:29;;;;;;;1.30;1.30;;;;;;;15.14;93.73;96887.66;5064680;28;20075;-60
2023/05/25 03:47:56;;;;;;;1.10;1.10;;;;;;;15.15;93.48;96884.47;5064660;28;20053;-61
2023/05/25 03:50:22;;;;;;;1.20;1.20;;;;;;;15.27;92.72;96897.16;5066141;28;20060;-59
2023/05/25 03:52:49;;;;;;;1.40;1.40;;;;;;;15.33;92.32;96894.75;5065874;28;20067;-60
2023/05/25 03:55:16;;;;;;;1.35;1.35;;;;;;;15.19;92.59;96881.63;5065399;28;20056;-60
2023/05/25 03:57:43;;;;;;;1.40;1.40;;;;;;;15.51;92.90;96890.72;5064627;28;20076;-60
2023/05/25 04:00:10;;;;;;;1.20;1.20;;;;;;;15.69;91.84;96891.44;5065054;28;20055;-62
2023/05/25 04:02:37;;;;;;;1.38;1.38;;;;;;;15.77;91.66;96887.41;5066318;28;20059;-60
2023/05/25 04:05:04;;;;;;;1.60;1.60;;;;;;;15.97;90.40;96891.25;5064160;28;20045;-61
2023/05/25 04:07:31;;;;;;;1.42;1.42;;;;;;;15.77;90.47;96887.41;5065505;28;20051;-60
2023/05/25 04:09:58;;;;;;;1.30;1.30;;;;;;;15.81;90.72;96893.75;5073901;28;20067;-59
2023/05/25 04:12:26;;;;;;;1.40;1.40;;;;;;;15.58;89.21;96818.09;5085924;28;20145;-62
2023/05/25 04:14:52;;;;;;;1.45;1.45;;;;;;;15.81;89.24;96865.00;5085808;28;20052;-60
2023/05/25 04:17:23;;;;;;;1.50;1.50;;;;;;;16.04;89.59;96899.59;5085486;28;20051;-60
2023/05/25 04:19:51;;;;;;;1.50;1.50;;;;;;;16.28;89.10;96895.81;5085791;28;20048;-61
2023/05/25 04:22:18;;;;;;;1.60;1.60;;;;;;;16.08;88.24;96829.69;5085724;28;20048;-60
2023/05/25 04:24:45;;;;;;;1.48;1.48;;;;;;;16.41;88.02;96882.13;5085455;28;20506;-60
2023/05/25 04:27:13;;;;;;;1.55;1.55;;;;;;;16.61;88.26;96903.56;5085165;28;20156;-59
2023/05/25 04:29:42;;;;;;;1.65;1.65;;;;;;;16.66;86.74;96907.13;5083709;28;20058;-59
2023/05/25 04:32:09;;;;;;;1.63;1.63;;;;;;;16.85;87.21;96917.75;5083687;28;20511;-59
2023/05/25 04:34:36;;;;;;;1.48;1.48;;;;;;;17.15;86.41;96903.84;5084803;28;20495;-61
2023/05/25 04:37:04;;;;;;;1.75;1.75;;;;;;;17.03;84.63;96865.16;5085039;28;20051;-60
2023/05/25 04:39:31;;;;;;;1.80;1.80;;;;;;;17.42;84.12;96897.09;5085103;28;20235;-59
2023/05/25 04:42:00;;;;;;;1.90;1.90;;;;;;;17.32;83.97;96870.03;5083640;28;20608;-60
2023/05/25 04:44:28;;;;;;;1.75;1.75;;;;;;;17.69;83.00;96912.00;5083554;28;20056;-60
2023/05/25 04:46:55;;;;;;;1.85;1.85;;;;;;;17.98;81.96;96904.00;5084009;28;20044;-60
2023/05/25 04:49:22;;;;;;;1.70;1.70;;;;;;;18.23;80.54;96884.00;5085155;28;20059;-59
2023/05/25 04:51:48;;;;;;;2.08;2.08;;;;;;;18.27;78.21;96851.91;5084837;28;20594;-61
2023/05/25 04:54:15;;;;;;;1.83;1.83;;;;;;;18.91;77.62;96897.31;5091915;28;20453;-65
2023/05/25 04:56:42;;;;;;;2.20;2.20;;;;;;;19.14;76.30;96894.47;5069207;28;20048;-63
2023/05/25 04:59:09;;;;;;;1.95;1.95;;;;;;;19.23;75.85;96891.91;5064776;28;20088;-63
2023/05/25 05:01:43;;;;;;;1.88;1.88;;;;;;;19.42;75.35;96893.19;5064572;28;20048;-65
2023/05/25 05:04:10;;;;;;;1.90;1.90;;;;;;;19.50;74.14;96894.63;5079995;28;20052;-64
2023/05/25 05:06:38;;;;;;;2.03;2.03;;;;;;;19.68;74.64;96888.63;5064266;28;20475;-66
2023/05/25 05:09:04;;;;;;;2.00;2.00;;;;;;;19.96;73.67;96899.25;5064376;28;20099;-64
2023/05/25 05:11:31;;;;;;;2.30;2.30;;;;;;;20.16;73.04;96891.59;5083586;28;20044;-64
2023/05/25 05:13:58;;;;;;;2.20;2.20;;;;;;;20.32;72.60;96888.81;5083332;28;20048;-64
2023/05/25 05:16:24;;;;;;;1.88;1.88;;;;;;;20.54;72.32;96901.94;5084496;28;20449;-64
2023/05/25 05:18:51;;;;;;;2.15;2.15;;;;;;;20.63;73.21;96892.88;5085000;28;20094;-64
2023/05/25 05:21:18;;;;;;;2.28;2.28;;;;;;;20.75;73.80;96900.63;5084188;28;20044;-64
2023/05/25 05:23:48;;;;;;;2.30;2.30;;;;;;;19.75;74.75;96764.78;5084395;28;20058;-64
2023/05/25 05:26:14;;;;;;;2.60;2.50;;;;;;;20.63;74.81;96898.50;5084164;28;20052;-64
2023/05/25 05:28:41;;;;;;;2.50;2.40;;;;;;;20.67;75.00;96905.66;5083067;28;20040;-65
2023/05/25 05:31:08;;;;;;;2.28;2.28;;;;;;;20.55;75.14;96868.97;5083682;28;20060;-65
2023/05/25 05:33:35;;;;;;;2.53;2.42;;;;;;;21.24;73.23;96899.38;5084570;28;20131;-64
2023/05/25 05:36:02;;;;;;;2.00;2.00;;;;;;;19.35;71.36;96604.78;5079132;28;20329;-62
2023/05/25 05:38:29;;;;;;;2.08;2.08;;;;;;;21.56;70.07;96847.72;5067354;28;20052;-65
2023/05/25 05:40:55;;;;;;;2.10;2.10;;;;;;;21.94;69.20;96869.16;5063489;28;20048;-65
2023/05/25 05:43:22;;;;;;;2.67;2.58;;;;;;;22.02;68.83;96852.81;5065885;28;20064;-60
2023/05/25 05:45:49;;;;;;;3.03;2.92;;;;;;;22.56;67.17;96869.66;5073845;28;20040;-62
2023/05/25 05:48:15;;;;;;;2.28;2.25;;;;;;;21.99;71.86;96905.28;5079771;28;20045;-59
2023/05/25 05:50:42;;;;;;;2.47;2.38;;;;;;;21.94;70.88;96840.16;5063232;28;20054;-64
2023/05/25 05:53:09;;;;;;;2.67;2.58;;;;;;;22.56;70.94;96903.53;5073175;28;20494;-60
2023/05/25 05:55:36;;;;;;;2.47;2.38;;;;;;;22.56;70.68;96909.19;5058722;28;20074;-63
2023/05/25 05:58:03;;;;;;;2.30;2.30;;;;;;;21.32;70.85;96781.59;5063593;28;20048;-61
2023/05/25 06:00:30;;;;;;;2.70;2.60;;;;;;;22.80;69.29;96907.56;5067487;28;20461;-60
2023/05/25 06:02:56;;;;;;;2.50;2.40;;;;;;;23.32;67.77;96910.66;5061022;28;20056;-59
2023/05/25 06:05:23;;;;;;;2.55;2.45;;;;;;;23.04;66.79;96883.34;5062319;28;20057;-64
2023/05/25 06:07:50;;;;;;;2.55;2.45;;;;;;;22.36;67.88;96811.38;5043165;28;20064;-64
2023/05/25 06:10:17;;;;;;;2.90;2.80;;;;;;;23.20;65.79;96837.97;5076396;28;20437;-72
2023/05/25 06:12:44;;;;;;;3.00;2.90;;;;;;;23.69;62.67;96867.28;5071075;28;20144;-67
2023/05/25 06:15:10;;;;;;;2.90;2.80;;;;;;;23.99;63.34;96913.88;5052817;28;20041;-59
2023/05/25 06:17:37;;;;;;;2.95;2.85;;;;;;;23.38;61.85;96829.66;5063352;28;20133;-66
2023/05/25 06:20:05;;;;;;;2.88;2.78;;;;;;;23.76;62.26;96839.50;5060593;28;20048;-59
2023/05/25 06:22:32;;;;;;;3.15;3.05;;;;;;;24.47;59.90;96914.00;5061511;28;20045;-62
2023/05/25 06:24:59;;;;;;;3.08;2.97;;;;;;;24.58;58.37;96922.84;5064900;28;20114;-57
2023/05/25 06:27:26;;;;;;;3.10;3.00;;;;;;;24.86;59.52;96916.09;5062232;28;20528;-59
2023/05/25 06:29:52;;;;;;;3.20;3.10;;;;;;;25.05;56.76;96917.69;5054898;28;20049;-57
2023/05/25 06:32:19;;;;;;;3.25;3.15;;;;;;;25.06;56.75;96913.59;5053637;28;20062;-64
2023/05/25 06:34:46;;;;;;;3.25;3.15;;;;;;;25.08;56.53;96916.78;5078467;28;20060;-65
2023/05/25 06:37:14;;;;;;;3.40;3.30;;;;;;;24.56;57.31;96851.72;5069201;28;20648;-63
2023/05/25 06:39:42;;;;;;;3.65;3.55;;;;;;;25.15;56.28;96916.47;5057526;28;20633;-59
2023/05/25 06:42:11;;;;;;;3.80;3.70;;;;;;;24.87;57.21;96866.63;5065637;28;20184;-66
2023/05/25 06:44:38;;;;;;;3.40;3.30;;;;;;;24.85;58.20;96925.81;5047525;28;20045;-59
2023/05/25 06:47:05;;;;;;;3.30;3.20;;;;;;;24.84;56.63;96893.09;5046876;28;20045;-58
2023/05/25 06:49:32;;;;;;;3.30;3.20;;;;;;;24.67;57.47;96924.97;5044760;28;20048;-59
2023/05/25 06:51:59;;;;;;;3.28;3.17;;;;;;;23.87;60.77;96898.50;5045054;28;20239;-63
2023/05/25 06:54:26;;;;;;;2.72;2.63;;;;;;;24.34;58.90;96916.16;5043681;28;20045;-60
2023/05/25 06:56:52;;;;;;;3.35;3.25;;;;;;;23.75;60.80;96859.78;5043177;28;20045;-62
2023/05/25 06:59:19;;;;;;;2.70;2.60;;;;;;;23.01;63.56;96882.25;5061352;28;20063;-62
2023/05/25 07:01:46;;;;;;;2.70;2.60;;;;;;;23.50;63.35;96919.31;5060034;28;20500;-64
2023/05/25 07:04:13;;;;;;;3.25;3.15;;;;;;;23.61;63.32;96871.63;5060275;28;20072;-59
2023/05/25 07:06:40;;;;;;;2.90;2.80;;;;;;;23.95;62.25;96925.28;5051673;28;20055;-59
2023/05/25 07:09:06;;;;;;;3.38;3.28;;;;;;;23.95;59.12;96919.63;5051272;28;20253;-58
2023/05/25 07:11:33;;;;;;;2.75;2.65;;;;;;;23.87;60.03;96890.03;5047734;28;20049;-62
2023/05/25 07:14:00;;;;;;;3.00;2.90;;;;;;;24.36;59.62;96922.13;5046817;28;20526;-60
2023/05/25 07:16:27;;;;;;;3.05;2.95;;;;;;;24.65;57.55;96939.59;5061970;28;20584;-60
2023/05/25 07:18:53;;;;;;;3.00;2.90;;;;;;;24.52;55.12;96873.72;5051876;28;20049;-62
2023/05/25 07:21:20;;;;;;;3.10;3.00;;;;;;;24.98;53.45;96923.66;5045986;28;20064;-61
2023/05/25 07:23:47;;;;;;;3.20;3.10;;;;;;;24.87;52.86;96860.97;5059114;28;20049;-65
2023/05/25 07:26:14;;;;;;;3.42;3.33;;;;;;;25.27;48.78;96926.09;5043309;28;20049;-60
2023/05/25 07:28:41;;;;;;;3.05;2.95;;;;;;;25.19;49.67;96925.63;5045818;28;20041;-63
2023/05/25 07:31:09;;;;;;;3.40;3.30;;;;;;;25.67;50.58;96928.84;5046805;28;20098;-62
2023/05/25 07:33:36;;;;;;;3.53;3.42;;;;;;;23.92;49.02;96688.53;5044691;28;20493;-62
2023/05/25 07:36:02;;;;;;;3.40;3.30;;;;;;;25.66;48.95;96915.91;5043520;28;20512;-68
2023/05/25 07:38:29;;;;;;;3.55;3.45;;;;;;;25.69;47.56;96923.50;5046052;28;20053;-69
2023/05/25 07:40:56;;;;;;;3.50;3.40;;;;;;;25.57;49.03;96918.75;5064600;28;20055;-60
2023/05/25 07:43:22;;;;;;;3.40;3.30;;;;;;;26.01;48.29;96937.03;5052310;28;20616;-67
2023/05/25 07:45:49;;;;;;;3.58;3.47;;;;;;;26.39;48.76;96923.09;5049049;28;20041;-63
2023/05/25 07:48:16;;;;;;;3.60;3.50;;;;;;;26.58;47.24;96916.09;5050863;28;20059;-70
2023/05/25 07:50:43;;;;;;;3.78;3.67;;;;;;;26.90;46.42;96923.88;5043322;28;20127;-64
2023/05/25 07:53:09;;;;;;;3.83;3.72;;;;;;;26.81;47.01;96926.75;5043651;28;20041;-70
2023/05/25 07:55:36;;;;;;;4.15;4.05;;;;;;;26.48;46.75;96880.44;5048401;28;20053;-61
2023/05/25 07:58:03;;;;;;;3.60;3.50;;;;;;;27.09;45.22;96913.97;5051324;28;20135;-59
2023/05/25 08:00:29;;;;;;;3.90;3.80;;;;;;;26.29;48.51;96930.06;5049478;28;20388;-59
2023/05/25 08:02:56;;;;;;;4.03;3.92;;;;;;;26.99;46.28;96920.19;5065465;28;20048;-65
2023/05/25 08:05:23;;;;;;;3.80;3.70;;;;;;;27.45;45.52;96916.63;5058624;28;20820;-67
2023/05/25 08:07:50;;;;;;;3.83;3.72;;;;;;;26.77;45.37;96926.16;5060758;28;20531;-59
2023/05/25 08:10:16;;;;;;;3.50;3.40;;;;;;;25.66;46.84;96899.66;5046497;28;20055;-60
2023/05/25 08:12:43;;;;;;;3.78;3.67;;;;;;;26.43;46.44;96872.59;5044279;28;20063;-62
2023/05/25 08:15:15;;;;;;;4.00;3.90;;;;;;;27.34;44.33;96879.41;5055260;28;20052;-58
2023/05/25 08:17:42;;;;;;;4.28;4.18;;;;;;;27.97;44.84;96910.22;5065021;28;20072;-66
2023/05/25 08:20:10;;;;;;;3.75;3.65;;;;;;;26.46;44.52;96917.84;5055244;28;20228;-60
2023/05/25 08:22:37;;;;;;;4.10;4.00;;;;;;;27.03;44.04;96913.06;5059118;28;20087;-62
2023/05/25 08:25:05;;;;;;;3.90;3.80;;;;;;;26.72;43.64;96787.50;5064171;28;20045;-59
2023/05/25 08:27:32;;;;;;;3.65;3.55;;;;;;;27.44;42.89;96874.44;5063160;28;20157;-62
2023/05/25 08:30:02;;;;;;;3.80;3.70;;;;;;;26.86;42.22;96889.13;5063275;28;20507;-63
2023/05/25 08:32:29;;;;;;;3.85;3.75;;;;;;;27.43;41.47;96899.25;5061761;28;20052;-59
2023/05/25 08:34:55;;;;;;;4.00;3.90;;;;;;;27.66;41.65;96912.66;5064031;28;20428;-61
2023/05/25 08:37:23;;;;;;;3.72;3.63;;;;;;;27.75;41.07;96909.75;5061988;28;20049;-60
2023/05/25 08:39:50;;;;;;;4.13;4.03;;;;;;;26.53;43.45;96865.56;5064125;28;20155;-65
2023/05/25 08:42:17;;;;;;;3.92;3.83;;;;;;;26.05;42.12;96717.00;5063303;28;20136;-62
2023/05/25 08:44:43;;;;;;;3.75;3.65;;;;;;;27.03;43.44;96915.91;5062056;28;20060;-65
2023/05/25 08:47:11;;;;;;;3.70;3.60;;;;;;;26.39;43.11;96861.38;5062351;28;20045;-65
2023/05/25 08:49:39;;;;;;;3.90;3.80;;;;;;;26.97;43.60;96912.13;5062652;28;20049;-60
2023/05/25 08:52:13;;;;;;;3.88;3.78;;;;;;;26.58;45.13;96908.34;5078292;28;20057;-59
2023/05/25 08:54:43;;;;;;;3.88;3.78;;;;;;;26.71;44.41;96902.50;5061258;28;20704;-64
2023/05/25 08:57:19;;;;;;;3.67;3.58;;;;;;;26.83;45.34;96901.47;5061221;28;20049;-65
2023/05/25 09:00:03;;;;;;;3.45;3.35;;;;;;;26.90;44.40;96881.22;5063021;28;20492;-64
2023/05/25 09:02:55;;;;;;;3.85;3.75;;;;;;;26.85;42.64;96896.09;5062676;28;20056;-60
2023/05/25 09:05:22;;;;;;;3.45;3.35;;;;;;;26.65;42.70;96896.66;5063066;28;20125;-63
2023/05/25 09:07:50;;;;;;;3.78;3.67;;;;;;;26.86;42.30;96894.81;5064620;28;20085;-64
2023/05/25 09:10:17;;;;;;;3.72;3.63;;;;;;;26.31;43.66;96899.13;5062742;28;20419;-64
2023/05/25 09:12:45;;;;;;;3.45;3.35;;;;;;;26.53;42.41;96868.41;5063919;28;20067;-64
2023/05/25 09:15:12;;;;;;;3.92;3.83;;;;;;;26.50;43.02;96875.06;5064003;28;20118;-63
2023/05/25 09:17:40;;;;;;;3.65;3.55;;;;;;;26.74;43.43;96901.53;5063827;28;20056;-60
2023/05/25 09:20:09;;;;;;;3.50;3.40;;;;;;;26.77;43.10;96874.97;5062188;28;20063;-65
2023/05/25 09:22:36;;;;;;;3.83;3.72;;;;;;;26.93;42.06;96888.78;5064001;28;20129;-64
2023/05/25 09:25:06;;;;;;;3.47;3.38;;;;;;;25.69;42.74;96756.06;5063693;28;20080;-60
2023/05/25 09:27:38;;;;;;;4.03;3.92;;;;;;;26.60;43.61;96887.97;5062334;28;20044;-64
2023/05/25 09:30:05;;;;;;;3.70;3.60;;;;;;;26.46;44.23;96871.63;5063804;28;20045;-65
2023/05/25 09:32:32;;;;;;;3.60;3.50;;;;;;;26.15;42.43;96845.53;5063995;28;20044;-61
2023/05/25 09:35:06;;;;;;;3.55;3.45;;;;;;;26.34;44.10;96869.75;5055116;28;20092;-60
2023/05/25 09:37:33;;;;;;;3.50;3.40;;;;;;;26.24;44.99;96871.06;5059352;28;20504;-65
2023/05/25 09:40:00;;;;;;;3.50;3.40;;;;;;;26.74;42.29;96873.09;5044010;28;20060;-63
2023/05/25 09:42:28;;;;;;;3.47;3.38;;;;;;;25.61;43.76;96818.00;5043599;28;20518;-64
2023/05/25 09:44:57;;;;;;;3.75;3.65;;;;;;;26.15;42.82;96873.91;5043144;28;20049;-60
2023/05/25 09:47:25;;;;;;;3.50;3.40;;;;;;;26.03;43.81;96857.88;5043462;28;20057;-59
2023/05/25 09:49:53;;;;;;;3.40;3.30;;;;;;;25.94;43.32;96835.91;5042485;28;20164;-63
2023/05/25 09:52:19;;;;;;;3.60;3.50;;;;;;;26.29;43.14;96867.56;5042170;28;20665;-61
2023/05/25 09:54:48;;;;;;;3.78;3.67;;;;;;;26.59;42.77;96869.34;5043751;28;20869;-60
2023/05/25 09:57:15;;;;;;;3.92;3.83;;;;;;;26.56;42.76;96887.34;5043339;28;20041;-64
2023/05/25 09:59:42;;;;;;;3.70;3.60;;;;;;;26.58;42.41;96879.13;5042993;28;20355;-61
2023/05/25 10:02:09;;;;;;;3.65;3.55;;;;;;;26.85;41.29;96844.94;5043033;28;20049;-60
2023/05/25 10:04:36;;;;;;;3.95;3.85;;;;;;;26.45;42.32;96870.03;5043339;28;20049;-63
2023/05/25 10:07:04;;;;;;;3.72;3.63;;;;;;;26.64;43.08;96865.88;5058861;28;20052;-65
2023/05/25 10:09:37;;;;;;;3.47;3.38;;;;;;;26.76;41.47;96864.09;5043139;28;20056;-63
2023/05/25 10:12:05;;;;;;;3.75;3.65;;;;;;;26.55;43.16;96846.00;5060808;28;20061;-65
2023/05/25 10:14:37;;;;;;;3.70;3.60;;;;;;;27.26;40.22;96846.91;5063224;28;20044;-64
2023/05/25 10:17:08;;;;;;;3.90;3.80;;;;;;;26.31;40.04;96762.78;5064012;28;20437;-60
2023/05/25 10:19:41;;;;;;;3.45;3.35;;;;;;;27.13;40.84;96829.25;5063145;28;20080;-60
2023/05/25 10:22:24;;;;;;;3.67;3.58;;;;;;;26.24;41.08;96837.75;5063655;28;20045;-60
2023/05/25 10:24:58;;;;;;;3.55;3.45;;;;;;;26.29;41.24;96731.22;5063387;28;20045;-64
2023/05/25 10:27:31;;;;;;;3.45;3.35;;;;;;;27.71;40.17;96829.41;5063057;28;20114;-59
2023/05/25 10:30:00;;;;;;;3.88;3.78;;;;;;;26.92;41.61;96796.22;5063730;28;20060;-64
2023/05/25 10:32:28;;;;;;;4.03;3.92;;;;;;;27.78;39.90;96834.75;5062806;28;20060;-60
2023/05/25 10:34:56;;;;;;;3.50;3.40;;;;;;;26.67;39.96;96745.53;5063001;28;20075;-60
2023/05/25 10:37:27;;;;;;;3.80;3.70;;;;;;;27.12;39.20;96833.38;5063587;28;20048;-60
2023/05/25 10:39:56;;;;;;;3.88;3.78;;;;;;;27.11;38.80;96802.59;5063325;28;20060;-63
2023/05/25 10:42:23;;;;;;;4.00;3.90;;;;;;;27.66;37.56;96798.78;5063024;28;20055;-62
2023/05/25 10:44:50;;;;;;;3.88;3.78;;;;;;;27.91;36.81;96795.41;5063238;28;20135;-63
2023/05/25 10:47:17;;;;;;;3.72;3.63;;;;;;;28.63;36.92;96830.03;5062999;28;20044;-60
2023/05/25 10:49:56;;;;;;;4.13;4.03;;;;;;;27.89;37.80;96840.66;5061211;28;20059;-63
2023/05/25 10:52:30;;;;;;;4.15;4.05;;;;;;;27.23;38.54;96836.47;5061438;28;20144;-64
2023/05/25 10:55:04;;;;;;;3.90;3.80;;;;;;;27.28;38.78;96835.81;5060165;28;20537;-64
2023/05/25 10:57:30;;;;;;;;;;;;;;;27.11;39.32;96837.47;5062030;28;20041;-63
2023/05/25 11:00:05;;;;;;;3.33;3.22;;;;;;;25.52;42.09;96792.50;5060107;28;20733;-62
2023/05/25 11:02:54;;;;;;;3.50;3.40;;;;;;;25.23;42.99;96775.94;5060487;28;20338;-61
2023/05/25 11:05:34;;;;;;;3.35;3.25;;;;;;;25.05;44.94;96843.97;5059719;28;20059;-60
2023/05/25 11:08:10;;;;;;;3.38;3.28;;;;;;;24.84;46.30;96844.91;5058243;28;20045;-65
2023/05/25 11:10:48;;;;;;;3.22;3.13;;;;;;;24.59;47.52;96842.31;5053413;28;20057;-62
2023/05/25 11:13:30;;;;;;;3.33;3.22;;;;;;;24.84;47.50;96842.06;5055028;28;20164;-57
2023/05/25 11:16:20;;;;;;;3.20;3.10;;;;;;;25.11;46.44;96852.66;5061515;28;20045;-65
2023/05/25 11:18:58;;;;;;;3.10;3.00;;;;;;;24.80;45.70;96810.25;5047727;28;20146;-58
2023/05/25 11:21:25;;;;;;;3.17;3.08;;;;;;;25.59;44.03;96848.94;5051300;28;20164;-66
2023/05/25 11:23:53;;;;;;;3.15;3.05;;;;;;;26.09;41.06;96841.75;5058461;28;20045;-58
2023/05/25 11:26:25;;;;;;;3.72;3.63;;;;;;;25.92;41.34;96738.31;5060858;28;20115;-58
2023/05/25 11:28:53;;;;;;;3.65;3.55;;;;;;;26.28;41.68;96815.66;5054013;28;20174;-59
2023/05/25 11:31:31;;;;;;;3.90;3.80;;;;;;;26.92;41.16;96824.66;5045462;28;20139;-61
2023/05/25 11:34:04;;;;;;;3.78;3.67;;;;;;;27.21;40.50;96839.00;5044840;28;20060;-59
2023/05/25 11:36:34;;;;;;;3.72;3.63;;;;;;;26.74;39.90;96802.03;5057451;28;20048;-65
2023/05/25 11:39:06;;;;;;;3.90;3.80;;;;;;;27.24;40.94;96829.47;5047819;28;20061;-63